Time;durP1;ratioP1;P1;durP2;ratioP2;P2;SDS_P1;SDS_P2;PMS_P1;PMS_P2;Temp;Humidity;BMP_temperature;BMP_pressure;BME280_temperature;BME280_humidity;BME280_pressure;Samples;Min_cycle;Max_cycle;Signal;HPM_P1;HPM_P2
2023/01/30 00:01:45;;;;;;;4.63;2.35;;;7.10;99.90;;;;;;5011290;28;20042;-40
2023/01/30 00:04:11;;;;;;;4.90;2.58;;;7.10;99.90;;;;;;5011597;28;20030;-47
2023/01/30 00:06:40;;;;;;;5.00;2.60;;;7.10;99.90;;;;;;4993794;28;20018;-53
2023/01/30 00:09:09;;;;;;;6.00;2.67;;;7.20;99.90;;;;;;5011459;28;20022;-41
2023/01/30 00:11:35;;;;;;;6.72;2.60;;;7.30;99.90;;;;;;4999521;28;20457;-38
2023/01/30 00:14:00;;;;;;;5.47;2.47;;;7.30;99.90;;;;;;4991809;28;20023;-39
2023/01/30 00:16:26;;;;;;;4.70;2.30;;;7.40;99.90;;;;;;4992203;28;20095;-52
2023/01/30 00:18:52;;;;;;;6.20;2.60;;;7.40;99.90;;;;;;4991766;28;20030;-51
2023/01/30 00:21:17;;;;;;;5.40;2.58;;;7.40;99.90;;;;;;4992092;28;20069;-49
2023/01/30 00:23:44;;;;;;;8.80;2.10;;;7.40;99.90;;;;;;4991797;28;20031;-45
2023/01/30 00:26:10;;;;;;;6.10;2.60;;;7.40;99.90;;;;;;4991895;28;20030;-52
2023/01/30 00:28:36;;;;;;;4.55;1.98;;;7.50;99.90;;;;;;4991676;28;20445;-41
2023/01/30 00:31:02;;;;;;;7.95;2.83;;;7.50;99.90;;;;;;4991870;28;20022;-43
2023/01/30 00:33:28;;;;;;;5.22;2.40;;;7.60;99.90;;;;;;4991866;28;20121;-39
2023/01/30 00:35:55;;;;;;;5.57;3.05;;;7.60;99.90;;;;;;4992913;28;20329;-41
2023/01/30 00:38:22;;;;;;;4.50;2.67;;;7.60;99.90;;;;;;4990599;28;20185;-51
2023/01/30 00:40:48;;;;;;;5.22;2.60;;;7.60;99.90;;;;;;4974002;28;20389;-43
2023/01/30 00:48:48;;;;;;;3.85;2.00;;;7.50;99.90;;;;;;4991804;28;20033;-43
2023/01/30 00:51:13;;;;;;;5.72;2.15;;;7.40;99.90;;;;;;4991634;28;20023;-45
2023/01/30 00:53:39;;;;;;;4.72;1.95;;;7.40;99.90;;;;;;4991501;28;20031;-47
2023/01/30 00:56:05;;;;;;;5.03;1.95;;;7.30;99.90;;;;;;4991425;28;20026;-49
2023/01/30 00:58:31;;;;;;;4.45;2.22;;;7.20;99.90;;;;;;4991222;28;20034;-47
2023/01/30 01:00:56;;;;;;;7.07;2.30;;;7.10;99.90;;;;;;4991293;28;20097;-44
2023/01/30 01:03:22;;;;;;;3.75;1.92;;;7.10;99.90;;;;;;4991188;28;20034;-46
2023/01/30 01:05:47;;;;;;;4.53;2.13;;;7.00;99.90;;;;;;4994552;28;20029;-44
2023/01/30 01:08:13;;;;;;;5.75;2.25;;;7.10;99.90;;;;;;4994332;28;20038;-42
2023/01/30 01:10:39;;;;;;;5.53;2.30;;;7.20;99.90;;;;;;5004924;28;20057;-51
2023/01/30 01:13:09;;;;;;;4.90;2.20;;;7.30;99.90;;;;;;4991222;28;20023;-49
2023/01/30 01:15:35;;;;;;;8.52;2.40;;;7.30;99.90;;;;;;4991110;28;20018;-46
2023/01/30 01:18:01;;;;;;;6.40;2.38;;;7.40;99.90;;;;;;4991078;28;20041;-52
2023/01/30 01:20:26;;;;;;;3.65;2.10;;;7.40;99.90;;;;;;4991070;28;20026;-51
2023/01/30 01:22:54;;;;;;;4.80;2.25;;;7.40;99.90;;;;;;4991313;28;20061;-43
2023/01/30 01:25:20;;;;;;;4.00;1.90;;;7.30;99.90;;;;;;4991226;28;20490;-49
2023/01/30 01:27:46;;;;;;;3.38;1.80;;;7.20;99.90;;;;;;4991001;28;20569;-51
2023/01/30 01:30:13;;;;;;;5.53;1.75;;;7.20;99.90;;;;;;4990884;28;20409;-45
2023/01/30 01:32:38;;;;;;;5.18;2.05;;;7.20;99.90;;;;;;4991054;28;20422;-45
2023/01/30 01:35:05;;;;;;;6.15;2.22;;;7.20;99.90;;;;;;4993664;28;20114;-41
2023/01/30 01:37:30;;;;;;;9.00;3.10;;;7.30;99.90;;;;;;4991008;28;20039;-44
2023/01/30 01:42:40;;;;;;;6.38;2.22;;;7.30;99.90;;;;;;5013907;28;20068;-42
2023/01/30 01:45:12;;;;;;;6.65;2.38;;;7.40;99.90;;;;;;5010317;28;20046;-38
2023/01/30 01:47:59;;;;;;;6.40;2.15;;;7.50;99.90;;;;;;5023710;28;20396;-38
2023/01/30 01:50:36;;;;;;;6.28;1.98;;;7.50;99.90;;;;;;5004217;28;20018;-43
2023/01/30 01:53:01;;;;;;;3.88;1.90;;;7.50;99.90;;;;;;5013852;28;20021;-38
2023/01/30 01:55:28;;;;;;;5.53;1.80;;;7.60;99.90;;;;;;5014026;28;20026;-43
2023/01/30 01:58:08;;;;;;;7.20;2.10;;;7.50;99.90;;;;;;5014086;28;20052;-42
2023/01/30 02:00:34;;;;;;;6.22;2.10;;;7.60;99.90;;;;;;5014092;28;20532;-47
2023/01/30 02:03:04;;;;;;;6.75;2.17;;;7.60;99.90;;;;;;5014017;28;20109;-46
2023/01/30 02:05:33;;;;;;;6.72;2.55;;;7.60;99.90;;;;;;5013667;28;20412;-45
2023/01/30 02:08:10;;;;;;;6.80;2.60;;;7.60;99.90;;;;;;5011788;28;20034;-40
2023/01/30 02:10:47;;;;;;;7.80;2.40;;;7.60;99.90;;;;;;5008007;28;20085;-51
2023/01/30 02:13:13;;;;;;;12.98;3.08;;;7.50;99.90;;;;;;4996825;28;20114;-47
2023/01/30 02:15:39;;;;;;;5.63;2.70;;;7.50;99.90;;;;;;4994190;28;20445;-40
2023/01/30 02:18:05;;;;;;;7.15;2.38;;;7.50;99.90;;;;;;5002724;28;20082;-44
2023/01/30 02:20:59;;;;;;;6.15;2.05;;;7.50;99.90;;;;;;5011184;28;20054;-41
2023/01/30 02:23:55;;;;;;;6.30;2.25;;;7.50;99.90;;;;;;4992242;28;20089;-48
2023/01/30 02:26:36;;;;;;;6.13;2.50;;;7.40;99.90;;;;;;5004871;28;20489;-48
2023/01/30 02:29:41;;;;;;;5.30;2.20;;;7.40;99.90;;;;;;5003059;28;20037;-39
2023/01/30 02:32:06;;;;;;;6.20;3.30;;;7.40;99.90;;;;;;5010778;28;20029;-45
2023/01/30 02:34:44;;;;;;;7.10;3.08;;;7.40;99.90;;;;;;5005615;28;20113;-42
2023/01/30 02:37:27;;;;;;;6.03;3.30;;;7.40;99.90;;;;;;4993777;28;20038;-41
2023/01/30 02:40:08;;;;;;;8.52;3.47;;;7.40;99.90;;;;;;4993750;28;20030;-44
2023/01/30 02:42:43;;;;;;;9.45;3.58;;;7.30;99.90;;;;;;4993779;28;20026;-40
2023/01/30 02:45:31;;;;;;;13.20;4.70;;;7.30;99.90;;;;;;4993753;28;20097;-54
2023/01/30 02:48:05;;;;;;;11.18;3.63;;;7.20;99.90;;;;;;5005642;28;20050;-47
2023/01/30 02:50:48;;;;;;;8.25;3.63;;;7.20;99.90;;;;;;5004694;28;20453;-51
2023/01/30 02:53:14;;;;;;;10.05;3.22;;;7.30;99.90;;;;;;5012979;28;20025;-53
2023/01/30 02:55:41;;;;;;;7.07;3.00;;;7.30;99.90;;;;;;5012745;28;20026;-56
2023/01/30 02:58:08;;;;;;;6.20;2.95;;;7.30;99.90;;;;;;5012951;28;20034;-55
2023/01/30 03:00:51;;;;;;;6.80;3.13;;;7.20;99.90;;;;;;5011887;28;20450;-50
2023/01/30 03:03:33;;;;;;;8.63;3.97;;;7.10;99.90;;;;;;5001314;28;20037;-50
2023/01/30 03:06:13;;;;;;;8.80;4.40;;;7.10;99.90;;;;;;5012401;28;20481;-46
2023/01/30 03:09:12;;;;;;;11.48;4.00;;;7.00;99.90;;;;;;5012637;28;20041;-45
2023/01/30 03:11:57;;;;;;;10.10;4.72;;;6.90;99.90;;;;;;5012641;28;20025;-41
2023/01/30 03:14:31;;;;;;;7.53;4.03;;;6.90;99.90;;;;;;5012162;28;20029;-45
2023/01/30 03:16:58;;;;;;;9.15;4.50;;;6.80;99.90;;;;;;5012549;28;20022;-45
2023/01/30 03:19:27;;;;;;;10.30;5.03;;;6.80;99.90;;;;;;5012197;28;20041;-38
2023/01/30 03:21:53;;;;;;;6.82;3.55;;;6.70;99.90;;;;;;5012355;28;20055;-54
2023/01/30 03:24:19;;;;;;;8.63;3.60;;;6.60;99.90;;;;;;5012583;28;20022;-48
2023/01/30 03:27:00;;;;;;;5.25;2.90;;;6.50;99.90;;;;;;5012248;28;20444;-50
2023/01/30 03:29:26;;;;;;;6.80;3.10;;;6.50;99.90;;;;;;5012331;28;20121;-47
2023/01/30 03:31:51;;;;;;;5.70;2.90;;;6.50;99.90;;;;;;5012227;28;20112;-53
2023/01/30 03:34:17;;;;;;;6.43;3.05;;;6.50;99.90;;;;;;5012292;28;20028;-48
2023/01/30 03:36:43;;;;;;;12.25;3.55;;;6.60;99.90;;;;;;5012096;28;20543;-41
2023/01/30 03:39:08;;;;;;;7.50;3.05;;;6.70;99.90;;;;;;5012189;28;20480;-50
2023/01/30 03:41:34;;;;;;;6.03;3.13;;;6.80;99.90;;;;;;5012009;28;20084;-46
2023/01/30 03:44:00;;;;;;;4.68;2.60;;;6.90;99.90;;;;;;5012011;28;20029;-40
2023/01/30 03:46:25;;;;;;;7.65;3.10;;;7.00;99.90;;;;;;5012083;28;20092;-41
2023/01/30 03:48:51;;;;;;;10.15;3.20;;;7.00;99.90;;;;;;5011864;28;20140;-47
2023/01/30 03:51:17;;;;;;;7.53;2.95;;;7.00;99.90;;;;;;5011984;28;20022;-52
2023/01/30 03:53:42;;;;;;;12.15;2.95;;;7.10;99.90;;;;;;4994166;28;20116;-43
2023/01/30 03:56:08;;;;;;;8.15;2.50;;;7.10;99.90;;;;;;5011686;28;20018;-47
2023/01/30 03:58:33;;;;;;;8.50;2.80;;;7.20;99.90;;;;;;5011636;28;20034;-49
2023/01/30 04:00:59;;;;;;;6.97;2.67;;;7.20;99.90;;;;;;4993347;28;20532;-47
2023/01/30 04:03:24;;;;;;;7.43;2.83;;;7.30;99.90;;;;;;5011146;28;20128;-41
2023/01/30 04:05:50;;;;;;;5.47;2.45;;;7.30;99.90;;;;;;5011431;28;20036;-38
2023/01/30 04:08:16;;;;;;;8.52;2.40;;;7.30;99.90;;;;;;5011764;28;20428;-43
2023/01/30 04:10:41;;;;;;;9.00;2.65;;;7.40;99.90;;;;;;5011559;28;20030;-38
2023/01/30 04:13:07;;;;;;;6.45;2.40;;;7.30;99.90;;;;;;5011248;28;20473;-44
2023/01/30 04:15:32;;;;;;;10.25;2.35;;;7.40;99.90;;;;;;5011418;28;20022;-46
2023/01/30 04:17:58;;;;;;;7.68;2.17;;;7.40;99.90;;;;;;5011236;28;20049;-44
2023/01/30 04:20:24;;;;;;;7.75;2.42;;;7.40;99.90;;;;;;5011228;28;20022;-52
2023/01/30 04:22:49;;;;;;;7.45;2.65;;;7.40;99.90;;;;;;5011265;28;20032;-41
2023/01/30 04:25:15;;;;;;;8.43;2.33;;;7.40;99.90;;;;;;5011490;28;20033;-45
2023/01/30 04:27:41;;;;;;;6.15;2.00;;;7.40;99.90;;;;;;5011010;28;20022;-44
2023/01/30 04:30:07;;;;;;;5.45;1.90;;;7.30;99.90;;;;;;5011345;28;20026;-48
2023/01/30 04:32:33;;;;;;;4.45;2.20;;;7.40;99.90;;;;;;5011337;28;20038;-44
2023/01/30 04:34:58;;;;;;;5.80;2.67;;;7.30;99.90;;;;;;5010978;28;20396;-48
2023/01/30 04:37:24;;;;;;;5.90;1.95;;;7.30;99.90;;;;;;5011086;28;20026;-53
2023/01/30 04:39:49;;;;;;;6.32;2.08;;;7.30;99.90;;;;;;4993313;28;20108;-42
2023/01/30 04:42:15;;;;;;;6.45;2.35;;;7.20;99.90;;;;;;5011167;28;20026;-39
2023/01/30 04:44:41;;;;;;;6.90;2.63;;;7.20;99.90;;;;;;5011132;28;20026;-39
2023/01/30 04:47:06;;;;;;;6.68;2.17;;;7.10;99.90;;;;;;5011176;28;20026;-41
2023/01/30 04:49:32;;;;;;;10.35;2.70;;;7.10;99.90;;;;;;5010407;28;20037;-49
2023/01/30 04:51:57;;;;;;;5.15;1.85;;;7.10;99.90;;;;;;5010772;28;20033;-48
2023/01/30 04:54:23;;;;;;;6.20;2.20;;;7.10;99.90;;;;;;5010933;28;20456;-53
2023/01/30 04:56:49;;;;;;;6.05;2.03;;;7.10;99.90;;;;;;5010768;28;20036;-48
2023/01/30 04:59:14;;;;;;;5.55;1.95;;;7.20;99.90;;;;;;5010751;28;20402;-45
2023/01/30 05:01:40;;;;;;;9.75;2.83;;;7.20;99.90;;;;;;5010287;28;20103;-43
2023/01/30 05:04:06;;;;;;;8.55;2.22;;;7.30;99.90;;;;;;5010572;28;20030;-42
2023/01/30 05:06:33;;;;;;;10.05;2.20;;;7.30;99.90;;;;;;5010865;28;20029;-38
2023/01/30 05:08:59;;;;;;;8.02;2.45;;;7.30;99.90;;;;;;5010884;28;20034;-49
2023/01/30 05:11:27;;;;;;;9.73;2.53;;;7.30;99.90;;;;;;5011322;28;20398;-47
2023/01/30 05:13:53;;;;;;;10.15;2.30;;;7.30;99.90;;;;;;5010688;28;20377;-42
2023/01/30 05:16:20;;;;;;;7.07;2.15;;;7.30;99.90;;;;;;5010590;28;20026;-48
2023/01/30 05:18:45;;;;;;;7.13;1.83;;;7.30;99.90;;;;;;5010724;28;20048;-50
2023/01/30 05:21:19;;;;;;;8.75;2.10;;;7.30;99.90;;;;;;5010579;28;20014;-41
2023/01/30 05:23:44;;;;;;;9.18;2.50;;;7.20;99.90;;;;;;5011005;28;20425;-45
2023/01/30 05:26:14;;;;;;;9.05;2.25;;;7.20;99.90;;;;;;5014643;28;20022;-51
2023/01/30 05:28:40;;;;;;;;;;;7.00;99.90;;;;;;5015310;28;20026;-44
2023/01/30 05:31:08;;;;;;;8.23;2.40;;;6.90;99.90;;;;;;5014561;28;19912;-39
2023/01/30 05:33:34;;;;;;;4.72;2.00;;;6.90;99.90;;;;;;5014321;28;20076;-44
2023/01/30 05:36:00;;;;;;;6.22;2.20;;;6.90;99.90;;;;;;5014276;28;20026;-44
2023/01/30 05:38:27;;;;;;;7.18;2.15;;;7.00;99.90;;;;;;5014133;28;20088;-45
2023/01/30 05:41:04;;;;;;;5.88;2.15;;;6.90;99.90;;;;;;5014359;28;20026;-42
2023/01/30 05:43:30;;;;;;;7.60;2.15;;;6.80;99.90;;;;;;5014348;28;20022;-41
2023/01/30 05:45:58;;;;;;;8.43;2.20;;;6.80;99.90;;;;;;5014706;28;20461;-40
2023/01/30 05:48:24;;;;;;;8.20;3.30;;;6.80;99.90;;;;;;5014196;28;20025;-48
2023/01/30 05:50:55;;;;;;;7.32;2.28;;;6.70;99.90;;;;;;5014358;28;20140;-38
2023/01/30 05:53:22;;;;;;;7.78;2.40;;;6.70;99.90;;;;;;5014209;28;20492;-42
2023/01/30 05:55:58;;;;;;;8.68;2.08;;;6.60;99.90;;;;;;5014158;28;20029;-43
2023/01/30 05:58:25;;;;;;;9.35;3.03;;;6.60;99.90;;;;;;5014176;28;20034;-46
2023/01/30 06:00:51;;;;;;;8.48;2.28;;;6.60;99.90;;;;;;5013795;28;20046;-43
2023/01/30 06:03:17;;;;;;;5.28;2.13;;;6.70;99.90;;;;;;5013944;28;20114;-47
2023/01/30 06:05:43;;;;;;;10.43;2.45;;;6.70;99.90;;;;;;5013699;28;20438;-38
2023/01/30 06:08:08;;;;;;;8.40;2.53;;;6.70;99.90;;;;;;5013869;28;20430;-38
2023/01/30 06:10:34;;;;;;;8.93;2.20;;;6.70;99.90;;;;;;5013967;28;20029;-40
2023/01/30 06:13:00;;;;;;;10.30;2.47;;;6.70;99.90;;;;;;5014141;28;20034;-43
2023/01/30 06:15:26;;;;;;;6.32;2.40;;;6.80;99.90;;;;;;5013919;28;20045;-41
2023/01/30 06:17:51;;;;;;;8.27;2.35;;;6.80;99.90;;;;;;5013625;28;20096;-47
2023/01/30 06:20:17;;;;;;;5.68;2.60;;;6.90;99.90;;;;;;5013592;28;20105;-51
2023/01/30 06:22:42;;;;;;;6.78;2.75;;;7.00;99.90;;;;;;5025602;28;20033;-40
2023/01/30 06:25:08;;;;;;;10.82;2.90;;;7.00;99.90;;;;;;5018419;28;20092;-44
2023/01/30 06:27:34;;;;;;;12.98;3.42;;;7.10;99.90;;;;;;5007225;28;20017;-43
2023/01/30 06:30:00;;;;;;;9.85;2.78;;;7.10;99.90;;;;;;5012763;28;20044;-42
2023/01/30 06:32:26;;;;;;;10.55;2.53;;;7.20;99.90;;;;;;5013301;28;20050;-39
2023/01/30 06:34:51;;;;;;;6.95;2.45;;;7.20;99.90;;;;;;5013143;28;20050;-48
2023/01/30 06:37:17;;;;;;;6.80;2.47;;;7.20;99.90;;;;;;5013195;28;20097;-45
2023/01/30 06:39:42;;;;;;;10.93;2.63;;;7.20;99.90;;;;;;5013384;28;20083;-41
2023/01/30 06:42:08;;;;;;;8.80;2.38;;;7.20;99.90;;;;;;5012593;28;20065;-37
2023/01/30 06:44:33;;;;;;;10.70;2.65;;;7.10;99.90;;;;;;5008565;28;20080;-40
2023/01/30 06:46:59;;;;;;;7.35;2.55;;;7.00;99.90;;;;;;5013156;28;20026;-38
2023/01/30 06:49:25;;;;;;;6.75;2.60;;;7.00;99.90;;;;;;5013096;28;20425;-37
2023/01/30 06:51:50;;;;;;;10.48;3.00;;;6.90;99.90;;;;;;5013079;28;20033;-41
2023/01/30 06:54:16;;;;;;;9.77;2.78;;;6.90;99.90;;;;;;5012814;28;20022;-38
2023/01/30 06:56:41;;;;;;;6.88;2.80;;;6.80;99.90;;;;;;5012865;28;20026;-38
2023/01/30 06:59:07;;;;;;;5.72;2.30;;;6.70;99.90;;;;;;5012841;28;20438;-48
2023/01/30 07:01:33;;;;;;;6.47;2.30;;;6.60;99.90;;;;;;5012764;28;20054;-38
2023/01/30 07:03:58;;;;;;;8.82;3.17;;;6.50;99.90;;;;;;5012382;28;20041;-43
2023/01/30 07:06:26;;;;;;;9.60;2.60;;;6.50;99.90;;;;;;5012888;28;20010;-42
2023/01/30 07:08:51;;;;;;;8.88;2.40;;;6.40;99.90;;;;;;4995366;28;20029;-43
2023/01/30 07:11:18;;;;;;;6.93;2.65;;;6.40;99.90;;;;;;5013115;28;20398;-44
2023/01/30 07:13:43;;;;;;;8.20;2.83;;;6.40;99.90;;;;;;5012967;28;20026;-54
2023/01/30 07:16:09;;;;;;;6.55;2.50;;;6.40;99.90;;;;;;5012718;28;20081;-47
2023/01/30 07:18:35;;;;;;;6.57;2.42;;;6.40;99.90;;;;;;5012681;28;20038;-44
2023/01/30 07:21:00;;;;;;;10.88;3.13;;;6.30;99.90;;;;;;5012542;28;20034;-41
2023/01/30 07:23:26;;;;;;;9.07;3.00;;;6.30;99.90;;;;;;5012274;28;20083;-57
2023/01/30 07:25:52;;;;;;;8.38;3.00;;;6.20;99.90;;;;;;5012440;28;20426;-51
2023/01/30 07:28:17;;;;;;;12.13;2.80;;;6.20;99.90;;;;;;5012171;28;20032;-51
2023/01/30 07:30:43;;;;;;;10.48;2.95;;;6.20;99.90;;;;;;5014712;28;20064;-52
2023/01/30 07:33:09;;;;;;;8.52;3.00;;;6.20;99.90;;;;;;5013518;28;20053;-44
2023/01/30 07:35:36;;;;;;;8.30;2.63;;;6.20;99.90;;;;;;5016333;28;20449;-45
2023/01/30 07:38:01;;;;;;;7.78;2.67;;;6.10;99.90;;;;;;5015695;28;20120;-51
2023/01/30 07:40:27;;;;;;;10.68;2.83;;;6.00;99.90;;;;;;5011931;28;20456;-50
2023/01/30 07:43:05;;;;;;;7.75;2.72;;;5.90;99.90;;;;;;5012139;28;20100;-46
2023/01/30 07:45:39;;;;;;;7.13;2.15;;;5.90;99.90;;;;;;5011978;28;20017;-53
2023/01/30 07:48:05;;;;;;;11.70;3.00;;;5.90;99.90;;;;;;5011093;28;20040;-55
2023/01/30 07:50:31;;;;;;;8.10;2.58;;;5.90;99.90;;;;;;5023257;28;20110;-43
2023/01/30 07:52:57;;;;;;;7.65;2.78;;;5.90;99.90;;;;;;5027387;28;20021;-38
2023/01/30 07:55:23;;;;;;;11.93;3.10;;;5.90;99.90;;;;;;5022693;28;20033;-42
2023/01/30 07:57:48;;;;;;;7.35;2.72;;;6.00;99.90;;;;;;5023012;28;20370;-45
2023/01/30 08:00:15;;;;;;;12.48;2.88;;;6.00;99.90;;;;;;5010914;28;20056;-51
2023/01/30 08:02:41;;;;;;;5.00;2.70;;;6.00;99.90;;;;;;5011368;28;20477;-39
2023/01/30 08:05:07;;;;;;;14.88;3.20;;;6.00;99.90;;;;;;5011777;28;20033;-43
2023/01/30 08:07:33;;;;;;;6.32;2.75;;;6.00;99.90;;;;;;5015724;28;20018;-40
2023/01/30 08:09:58;;;;;;;8.57;3.10;;;6.10;99.90;;;;;;5023298;28;20036;-50
2023/01/30 08:12:24;;;;;;;9.25;2.20;;;6.20;99.90;;;;;;5024163;28;20025;-41
2023/01/30 08:14:49;;;;;;;12.50;2.83;;;6.20;99.90;;;;;;5020003;28;20103;-43
2023/01/30 08:17:15;;;;;;;9.40;2.95;;;6.20;99.90;;;;;;5021204;28;20022;-38
2023/01/30 08:19:41;;;;;;;9.23;2.55;;;6.30;99.90;;;;;;5022188;28;20038;-49
2023/01/30 08:22:06;;;;;;;4.68;2.20;;;6.30;99.90;;;;;;5026104;28;20048;-40
2023/01/30 08:24:32;;;;;;;7.28;2.53;;;6.40;99.90;;;;;;5024134;28;20033;-46
2023/01/30 08:26:59;;;;;;;9.73;2.72;;;6.40;99.90;;;;;;5023970;28;20028;-42
2023/01/30 08:29:24;;;;;;;14.98;2.45;;;6.50;99.90;;;;;;5015013;28;20026;-53
2023/01/30 08:31:50;;;;;;;9.63;2.00;;;6.60;99.90;;;;;;5024503;28;20447;-52
2023/01/30 08:34:15;;;;;;;7.28;2.42;;;6.60;99.90;;;;;;5025391;28;20100;-49
2023/01/30 08:36:41;;;;;;;13.10;2.95;;;6.70;99.90;;;;;;5021843;28;20125;-51
2023/01/30 08:39:07;;;;;;;9.18;2.92;;;6.80;99.90;;;;;;5022137;28;20423;-43
2023/01/30 08:41:32;;;;;;;7.45;2.50;;;7.10;99.90;;;;;;5021345;28;20029;-55
2023/01/30 08:43:58;;;;;;;9.82;2.45;;;7.60;99.90;;;;;;5023962;28;20041;-49
2023/01/30 08:46:23;;;;;;;11.95;1.98;;;8.20;99.90;;;;;;5024697;28;20384;-53
2023/01/30 08:48:49;;;;;;;10.75;3.05;;;8.30;99.90;;;;;;5019515;28;20061;-49
2023/01/30 08:51:15;;;;;;;7.25;1.90;;;8.30;99.90;;;;;;5027229;28;20021;-40
2023/01/30 08:53:40;;;;;;;8.90;2.38;;;8.30;99.90;;;;;;5023373;28;20400;-43
2023/01/30 08:56:06;;;;;;;11.80;2.00;;;8.20;99.90;;;;;;5023783;28;20029;-42
2023/01/30 08:58:31;;;;;;;6.95;1.50;;;8.20;99.90;;;;;;5021301;28;20029;-45
2023/01/30 09:00:57;;;;;;;7.03;1.85;;;8.00;99.90;;;;;;5021825;28;20700;-41
2023/01/30 09:03:23;;;;;;;6.47;1.88;;;8.10;99.90;;;;;;5018743;28;20112;-40
2023/01/30 09:05:55;;;;;;;8.10;2.28;;;8.10;99.90;;;;;;5019717;28;20033;-45
2023/01/30 09:08:21;;;;;;;10.73;1.70;;;8.10;99.90;;;;;;5010759;28;20018;-40
2023/01/30 09:10:46;;;;;;;11.38;1.70;;;8.00;99.90;;;;;;5010682;28;20126;-44
2023/01/30 09:13:12;;;;;;;4.78;1.40;;;8.00;99.90;;;;;;5010723;28;20106;-45
2023/01/30 09:15:41;;;;;;;7.25;1.60;;;7.90;99.90;;;;;;5015303;28;20030;-49
2023/01/30 09:18:06;;;;;;;9.00;1.88;;;7.90;99.90;;;;;;4997093;28;20054;-47
2023/01/30 09:20:32;;;;;;;8.20;1.50;;;7.90;99.90;;;;;;4989655;28;20459;-40
2023/01/30 09:22:59;;;;;;;4.05;1.40;;;7.90;99.90;;;;;;5008166;28;20037;-40
2023/01/30 09:25:24;;;;;;;5.15;1.50;;;7.70;99.90;;;;;;5008321;28;20052;-44
2023/01/30 09:27:50;;;;;;;5.90;1.48;;;7.60;99.90;;;;;;4989417;28;20033;-52
2023/01/30 09:30:17;;;;;;;8.43;1.33;;;7.60;99.90;;;;;;5006807;28;20049;-53
2023/01/30 09:32:42;;;;;;;7.65;1.67;;;7.70;99.90;;;;;;5001273;28;20607;-51
2023/01/30 09:35:08;;;;;;;6.72;1.80;;;7.80;99.90;;;;;;5007312;28;20144;-40
2023/01/30 09:37:34;;;;;;;5.88;1.35;;;8.00;99.90;;;;;;4994570;28;20397;-40
2023/01/30 09:39:59;;;;;;;7.25;1.38;;;8.20;99.90;;;;;;5007792;28;20038;-46
2023/01/30 09:42:42;;;;;;;9.15;1.75;;;8.50;99.90;;;;;;5020819;28;20022;-46
2023/01/30 09:45:39;;;;;;;8.13;2.38;;;8.50;99.90;;;;;;5021652;28;20270;-41
2023/01/30 09:48:20;;;;;;;9.02;1.38;;;8.70;99.90;;;;;;5020831;28;20480;-44
2023/01/30 09:51:07;;;;;;;10.48;1.70;;;8.90;99.90;;;;;;5024010;28;20138;-40
2023/01/30 09:53:48;;;;;;;7.75;1.48;;;9.10;99.90;;;;;;5012500;28;20018;-39
2023/01/30 09:56:13;;;;;;;4.07;1.13;;;9.30;99.90;;;;;;5002787;28;20073;-39
2023/01/30 09:58:59;;;;;;;10.27;1.70;;;9.90;99.90;;;;;;5010060;28;20454;-40
2023/01/30 10:01:50;;;;;;;6.57;1.50;;;10.70;99.90;;;;;;4999359;28;20054;-39
2023/01/30 10:04:34;;;;;;;6.53;1.48;;;12.20;97.00;;;;;;5019255;28;20104;-44
2023/01/30 10:07:08;;;;;;;8.23;1.58;;;14.10;94.80;;;;;;5024674;28;20423;-46
2023/01/30 10:10:19;;;;;;;8.70;1.60;;;15.30;87.20;;;;;;5023477;28;20029;-40
2023/01/30 10:13:06;;;;;;;7.07;1.48;;;16.20;78.10;;;;;;5003608;28;20037;-46
2023/01/30 10:15:50;;;;;;;6.68;1.30;;;16.10;74.80;;;;;;5030126;28;20025;-43
2023/01/30 10:18:34;;;;;;;7.60;1.50;;;16.40;74.70;;;;;;5021596;28;20033;-41
2023/01/30 10:21:14;;;;;;;5.35;1.33;;;17.40;71.60;;;;;;5009651;28;20041;-46
2023/01/30 10:24:00;;;;;;;9.98;2.20;;;17.50;66.10;;;;;;5008471;28;20063;-42
2023/01/30 10:26:27;;;;;;;8.80;1.67;;;17.90;68.20;;;;;;5028051;28;20546;-41
2023/01/30 10:29:11;;;;;;;10.27;1.83;;;18.40;64.10;;;;;;5030155;28;20378;-43
2023/01/30 10:31:53;;;;;;;8.38;1.98;;;18.60;63.90;;;;;;5003608;28;20379;-46
2023/01/30 10:34:25;;;;;;;9.70;2.22;;;19.10;63.70;;;;;;4999430;28;20121;-44
2023/01/30 10:37:16;;;;;;;7.25;1.73;;;18.00;62.20;;;;;;5010340;28;20038;-47
2023/01/30 10:40:25;;;;;;;8.43;1.75;;;16.90;64.30;;;;;;5011640;28;20046;-43
2023/01/30 10:43:02;;;;;;;8.37;2.00;;;15.20;66.40;;;;;;4974917;28;20477;-40
2023/01/30 10:45:51;;;;;;;9.77;2.20;;;13.90;71.30;;;;;;5008153;28;20247;-42
2023/01/30 10:48:54;;;;;;;8.13;1.80;;;13.30;72.80;;;;;;5012747;28;20096;-42
2023/01/30 10:51:32;;;;;;;13.63;1.98;;;12.90;75.10;;;;;;5006260;28;20382;-44
2023/01/30 10:54:15;;;;;;;6.28;1.60;;;12.90;76.20;;;;;;5013382;28;20018;-45
2023/01/30 10:57:06;;;;;;;8.23;1.67;;;13.00;75.50;;;;;;5011473;28;20104;-40
2023/01/30 11:00:29;;;;;;;8.57;1.90;;;13.80;77.50;;;;;;5009469;28;20034;-47
2023/01/30 11:03:07;;;;;;;10.93;2.35;;;17.10;71.50;;;;;;4917869;29;20047;-40
2023/01/30 11:05:40;;;;;;;9.70;2.88;;;18.60;62.30;;;;;;4917459;29;20023;-44
2023/01/30 11:08:25;;;;;;;10.90;2.80;;;18.90;58.80;;;;;;4976402;28;20130;-41
2023/01/30 11:10:53;;;;;;;15.63;2.90;;;20.10;59.40;;;;;;5012935;28;20033;-41
2023/01/30 11:13:23;;;;;;;9.80;3.10;;;21.40;55.70;;;;;;5025412;28;20018;-41
2023/01/30 11:15:51;;;;;;;7.22;1.92;;;21.50;54.80;;;;;;5021274;28;20072;-40
2023/01/30 11:18:19;;;;;;;8.02;1.98;;;21.50;52.80;;;;;;5024508;28;20087;-41
2023/01/30 11:20:57;;;;;;;10.40;2.17;;;22.00;51.20;;;;;;5016315;28;20029;-40
2023/01/30 11:23:41;;;;;;;13.25;2.33;;;23.10;52.20;;;;;;5024174;28;20029;-40
2023/01/30 11:26:15;;;;;;;7.40;2.22;;;24.20;46.00;;;;;;5025435;28;20022;-42
2023/01/30 11:28:42;;;;;;;11.73;2.10;;;24.00;47.00;;;;;;5028778;28;20029;-44
2023/01/30 11:31:16;;;;;;;7.80;1.83;;;24.00;46.40;;;;;;5007183;28;20025;-44
2023/01/30 11:33:44;;;;;;;9.15;2.08;;;24.80;45.30;;;;;;5011279;28;20021;-40
2023/01/30 11:36:28;;;;;;;8.50;2.00;;;24.70;43.40;;;;;;5011747;28;20026;-41
2023/01/30 11:39:03;;;;;;;9.43;2.30;;;24.80;43.40;;;;;;5012081;28;20053;-40
2023/01/30 11:41:30;;;;;;;8.00;1.70;;;24.50;44.80;;;;;;5011947;28;20136;-43
2023/01/30 11:44:04;;;;;;;9.10;2.00;;;24.70;44.60;;;;;;4994113;28;20065;-41
2023/01/30 11:46:41;;;;;;;8.93;1.73;;;24.90;42.50;;;;;;5007876;28;20010;-48
2023/01/30 11:49:15;;;;;;;9.63;2.05;;;25.30;43.30;;;;;;5011838;28;20477;-40
2023/01/30 11:51:44;;;;;;;10.07;1.75;;;25.80;42.90;;;;;;5011895;28;20030;-39
2023/01/30 11:54:21;;;;;;;16.55;2.20;;;24.70;41.40;;;;;;5011842;28;20030;-42
2023/01/30 11:56:52;;;;;;;9.93;2.33;;;24.20;43.90;;;;;;5011628;28;20105;-40
2023/01/30 11:59:31;;;;;;;6.43;1.70;;;24.90;41.70;;;;;;5011402;28;20397;-40
2023/01/30 12:02:27;;;;;;;8.55;1.90;;;24.70;41.70;;;;;;5011296;28;20038;-42
2023/01/30 12:05:20;;;;;;;14.43;3.92;;;24.80;42.50;;;;;;4999521;28;20114;-41
2023/01/30 12:07:46;;;;;;;7.97;2.53;;;24.70;41.70;;;;;;5005139;28;20096;-51
2023/01/30 12:10:24;;;;;;;18.23;8.82;;;24.80;42.20;;;;;;5007229;28;20033;-46
2023/01/30 12:12:53;;;;;;;8.13;2.27;;;24.80;41.80;;;;;;5006996;28;20060;-47
2023/01/30 12:15:26;;;;;;;;;;;23.40;42.80;;;;;;5012453;28;20026;-42
2023/01/30 12:17:56;;;;;;;7.55;2.70;;;22.40;44.70;;;;;;5011235;28;19914;-42
2023/01/30 12:20:40;;;;;;;12.52;5.55;;;21.30;46.50;;;;;;5006199;28;20042;-40
2023/01/30 12:23:38;;;;;;;12.70;6.72;;;21.30;47.60;;;;;;5010960;28;20053;-42
2023/01/30 12:26:19;;;;;;;11.40;3.17;;;22.10;48.00;;;;;;4970069;28;20458;-49
2023/01/30 12:29:11;;;;;;;8.52;2.42;;;22.90;45.00;;;;;;5011660;28;20034;-47
2023/01/30 12:31:45;;;;;;;9.05;2.50;;;22.20;45.30;;;;;;5009293;28;20108;-50
2023/01/30 12:34:11;;;;;;;8.65;1.92;;;21.30;46.00;;;;;;5011035;28;20057;-40
2023/01/30 12:37:14;;;;;;;8.90;2.17;;;19.90;48.70;;;;;;5008740;28;20063;-46
2023/01/30 12:39:40;;;;;;;11.00;2.30;;;17.80;51.20;;;;;;5020789;28;20369;-41
2023/01/30 12:42:26;;;;;;;7.90;2.63;;;16.90;54.50;;;;;;5007497;28;20032;-41
2023/01/30 12:45:21;;;;;;;10.77;2.50;;;16.30;56.70;;;;;;5006302;28;20065;-42
2023/01/30 12:48:18;;;;;;;8.10;1.92;;;16.20;56.70;;;;;;4981872;28;20424;-45
2023/01/30 12:50:56;;;;;;;6.05;1.80;;;16.50;56.10;;;;;;4966999;28;20493;-44
2023/01/30 12:53:24;;;;;;;7.70;1.85;;;16.00;56.60;;;;;;5009698;28;20036;-43
2023/01/30 12:55:59;;;;;;;8.70;2.33;;;15.60;58.40;;;;;;5009791;28;20030;-44
2023/01/30 12:58:44;;;;;;;7.15;1.90;;;16.00;57.90;;;;;;5013638;28;20108;-42
2023/01/30 13:01:10;;;;;;;8.07;1.55;;;16.30;58.40;;;;;;5007991;28;20034;-40
2023/01/30 13:03:57;;;;;;;5.43;1.80;;;17.90;56.30;;;;;;5022703;28;20028;-43
2023/01/30 13:06:32;;;;;;;13.20;2.63;;;20.20;50.30;;;;;;5023821;28;20026;-38
2023/01/30 13:09:03;;;;;;;6.60;1.80;;;21.30;48.30;;;;;;5024659;28;20057;-41
2023/01/30 13:11:41;;;;;;;10.05;2.53;;;22.20;46.50;;;;;;5021463;28;20116;-50
2023/01/30 13:14:23;;;;;;;8.02;1.85;;;23.50;45.10;;;;;;5023279;28;20052;-46
2023/01/30 13:17:33;;;;;;;8.50;1.80;;;24.20;41.80;;;;;;5022987;28;20054;-40
2023/01/30 13:20:47;;;;;;;8.63;1.92;;;24.10;41.30;;;;;;4988247;28;20045;-43
2023/01/30 13:23:31;;;;;;;9.88;1.90;;;23.30;42.00;;;;;;4951438;28;20039;-44